sensor_id;sensor_type;location;lat;lon;timestamp;P1;durP1;ratioP1;P2;durP2;ratioP2
35715;SDS011;21840;44.920;8.616;2023-07-31T00:01:23;8.18;;;3.15;;
35715;SDS011;21840;44.920;8.616;2023-07-31T00:03:49;7.40;;;3.70;;
35715;SDS011;21840;44.920;8.616;2023-07-31T00:06:14;6.45;;;2.92;;
35715;SDS011;21840;44.920;8.616;2023-07-31T00:08:40;7.70;;;3.25;;
35715;SDS011;21840;44.920;8.616;2023-07-31T00:11:05;7.07;;;3.40;;
35715;SDS011;21840;44.920;8.616;2023-07-31T00:13:30;10.15;;;2.88;;
35715;SDS011;21840;44.920;8.616;2023-07-31T00:15:56;5.28;;;3.40;;
35715;SDS011;21840;44.920;8.616;2023-07-31T00:18:21;7.72;;;3.42;;
35715;SDS011;21840;44.920;8.616;2023-07-31T00:20:47;8.20;;;3.42;;
35715;SDS011;21840;44.920;8.616;2023-07-31T00:23:12;5.97;;;3.17;;
35715;SDS011;21840;44.920;8.616;2023-07-31T00:25:38;6.25;;;3.38;;
35715;SDS011;21840;44.920;8.616;2023-07-31T00:28:03;9.85;;;3.28;;
35715;SDS011;21840;44.920;8.616;2023-07-31T00:30:29;12.07;;;3.40;;
35715;SDS011;21840;44.920;8.616;2023-07-31T00:32:54;6.45;;;3.58;;
35715;SDS011;21840;44.920;8.616;2023-07-31T00:35:20;7.10;;;3.40;;
35715;SDS011;21840;44.920;8.616;2023-07-31T00:37:45;4.70;;;3.40;;
35715;SDS011;21840;44.920;8.616;2023-07-31T00:40:11;6.47;;;3.25;;
35715;SDS011;21840;44.920;8.616;2023-07-31T00:42:36;5.60;;;3.20;;
35715;SDS011;21840;44.920;8.616;2023-07-31T00:45:02;11.35;;;3.63;;
35715;SDS011;21840;44.920;8.616;2023-07-31T00:47:29;7.50;;;3.42;;
35715;SDS011;21840;44.920;8.616;2023-07-31T00:49:54;7.72;;;3.40;;
35715;SDS011;21840;44.920;8.616;2023-07-31T00:52:20;10.55;;;3.92;;
35715;SDS011;21840;44.920;8.616;2023-07-31T00:54:46;5.47;;;3.60;;
35715;SDS011;21840;44.920;8.616;2023-07-31T00:57:11;7.25;;;3.83;;
35715;SDS011;21840;44.920;8.616;2023-07-31T00:59:37;8.35;;;4.60;;
35715;SDS011;21840;44.920;8.616;2023-07-31T01:02:02;6.85;;;4.05;;
35715;SDS011;21840;44.920;8.616;2023-07-31T01:04:29;9.98;;;4.15;;
35715;SDS011;21840;44.920;8.616;2023-07-31T01:07:11;5.97;;;3.90;;
35715;SDS011;21840;44.920;8.616;2023-07-31T01:09:45;8.68;;;3.88;;
35715;SDS011;21840;44.920;8.616;2023-07-31T01:12:17;4.45;;;3.42;;
35715;SDS011;21840;44.920;8.616;2023-07-31T01:14:51;7.78;;;3.78;;
35715;SDS011;21840;44.920;8.616;2023-07-31T01:17:29;10.80;;;3.70;;
35715;SDS011;21840;44.920;8.616;2023-07-31T01:19:55;5.88;;;3.72;;
35715;SDS011;21840;44.920;8.616;2023-07-31T01:27:52;10.23;;;4.35;;
35715;SDS011;21840;44.920;8.616;2023-07-31T01:30:25;5.85;;;3.70;;
35715;SDS011;21840;44.920;8.616;2023-07-31T01:32:55;8.07;;;3.78;;
35715;SDS011;21840;44.920;8.616;2023-07-31T01:35:21;8.52;;;4.30;;
35715;SDS011;21840;44.920;8.616;2023-07-31T01:37:47;10.00;;;3.90;;
35715;SDS011;21840;44.920;8.616;2023-07-31T01:40:13;5.88;;;3.60;;
35715;SDS011;21840;44.920;8.616;2023-07-31T01:42:38;9.20;;;3.63;;
35715;SDS011;21840;44.920;8.616;2023-07-31T01:45:04;9.20;;;4.00;;
35715;SDS011;21840;44.920;8.616;2023-07-31T01:47:29;6.85;;;3.42;;
35715;SDS011;21840;44.920;8.616;2023-07-31T01:49:55;7.20;;;3.83;;
35715;SDS011;21840;44.920;8.616;2023-07-31T01:52:20;8.50;;;4.20;;
35715;SDS011;21840;44.920;8.616;2023-07-31T01:54:46;5.88;;;3.47;;
35715;SDS011;21840;44.920;8.616;2023-07-31T01:57:11;6.93;;;3.53;;
35715;SDS011;21840;44.920;8.616;2023-07-31T01:59:40;6.43;;;3.80;;
35715;SDS011;21840;44.920;8.616;2023-07-31T02:02:05;7.07;;;3.85;;
35715;SDS011;21840;44.920;8.616;2023-07-31T02:04:31;10.45;;;4.30;;
35715;SDS011;21840;44.920;8.616;2023-07-31T02:06:56;8.27;;;3.72;;
35715;SDS011;21840;44.920;8.616;2023-07-31T02:09:21;8.75;;;3.63;;
35715;SDS011;21840;44.920;8.616;2023-07-31T02:11:47;11.48;;;3.67;;
35715;SDS011;21840;44.920;8.616;2023-07-31T02:14:12;6.90;;;3.20;;
35715;SDS011;21840;44.920;8.616;2023-07-31T02:16:38;6.57;;;3.60;;
35715;SDS011;21840;44.920;8.616;2023-07-31T02:19:03;7.88;;;3.78;;
35715;SDS011;21840;44.920;8.616;2023-07-31T02:21:29;7.00;;;3.30;;
35715;SDS011;21840;44.920;8.616;2023-07-31T02:23:54;7.88;;;3.83;;
35715;SDS011;21840;44.920;8.616;2023-07-31T02:26:20;9.57;;;3.65;;
35715;SDS011;21840;44.920;8.616;2023-07-31T02:28:45;8.90;;;3.58;;
35715;SDS011;21840;44.920;8.616;2023-07-31T02:31:11;6.43;;;3.90;;
35715;SDS011;21840;44.920;8.616;2023-07-31T02:33:36;8.35;;;3.78;;
35715;SDS011;21840;44.920;8.616;2023-07-31T02:36:02;8.70;;;3.53;;
35715;SDS011;21840;44.920;8.616;2023-07-31T02:38:27;6.57;;;4.40;;
35715;SDS011;21840;44.920;8.616;2023-07-31T02:40:53;9.20;;;4.68;;
35715;SDS011;21840;44.920;8.616;2023-07-31T02:43:18;7.95;;;4.32;;
35715;SDS011;21840;44.920;8.616;2023-07-31T02:45:44;10.13;;;4.50;;
35715;SDS011;21840;44.920;8.616;2023-07-31T02:48:10;6.43;;;4.47;;
35715;SDS011;21840;44.920;8.616;2023-07-31T02:50:35;7.32;;;4.13;;
35715;SDS011;21840;44.920;8.616;2023-07-31T02:53:01;12.13;;;5.10;;
35715;SDS011;21840;44.920;8.616;2023-07-31T02:55:26;11.85;;;4.93;;
35715;SDS011;21840;44.920;8.616;2023-07-31T02:57:51;9.73;;;4.60;;
35715;SDS011;21840;44.920;8.616;2023-07-31T03:00:18;14.52;;;4.85;;
35715;SDS011;21840;44.920;8.616;2023-07-31T03:02:44;8.00;;;4.55;;
35715;SDS011;21840;44.920;8.616;2023-07-31T03:05:10;14.30;;;4.75;;
35715;SDS011;21840;44.920;8.616;2023-07-31T03:07:35;9.27;;;5.18;;
35715;SDS011;21840;44.920;8.616;2023-07-31T03:10:01;9.98;;;4.97;;
35715;SDS011;21840;44.920;8.616;2023-07-31T03:12:27;9.93;;;5.00;;
35715;SDS011;21840;44.920;8.616;2023-07-31T03:14:53;11.20;;;4.82;;
35715;SDS011;21840;44.920;8.616;2023-07-31T03:17:18;15.90;;;5.38;;
35715;SDS011;21840;44.920;8.616;2023-07-31T03:19:44;8.30;;;4.32;;
35715;SDS011;21840;44.920;8.616;2023-07-31T03:22:27;11.10;;;4.63;;
35715;SDS011;21840;44.920;8.616;2023-07-31T03:24:53;10.48;;;4.38;;
35715;SDS011;21840;44.920;8.616;2023-07-31T03:27:19;10.40;;;5.30;;
35715;SDS011;21840;44.920;8.616;2023-07-31T03:29:44;16.08;;;5.00;;
35715;SDS011;21840;44.920;8.616;2023-07-31T03:32:09;6.97;;;4.18;;
35715;SDS011;21840;44.920;8.616;2023-07-31T03:34:35;15.40;;;5.15;;
35715;SDS011;21840;44.920;8.616;2023-07-31T03:37:00;10.15;;;5.05;;
35715;SDS011;21840;44.920;8.616;2023-07-31T03:39:26;8.00;;;4.57;;
35715;SDS011;21840;44.920;8.616;2023-07-31T03:41:52;10.63;;;5.22;;
35715;SDS011;21840;44.920;8.616;2023-07-31T03:44:18;12.27;;;5.38;;
35715;SDS011;21840;44.920;8.616;2023-07-31T03:46:44;10.73;;;5.40;;
35715;SDS011;21840;44.920;8.616;2023-07-31T03:49:09;9.57;;;4.38;;
35715;SDS011;21840;44.920;8.616;2023-07-31T03:51:35;7.32;;;4.80;;
35715;SDS011;21840;44.920;8.616;2023-07-31T03:54:00;8.63;;;4.57;;
35715;SDS011;21840;44.920;8.616;2023-07-31T03:56:26;13.98;;;4.95;;
35715;SDS011;21840;44.920;8.616;2023-07-31T03:58:51;7.90;;;4.50;;
35715;SDS011;21840;44.920;8.616;2023-07-31T04:01:16;11.60;;;4.88;;
35715;SDS011;21840;44.920;8.616;2023-07-31T04:03:42;11.27;;;4.88;;
35715;SDS011;21840;44.920;8.616;2023-07-31T04:06:08;14.00;;;4.82;;
35715;SDS011;21840;44.920;8.616;2023-07-31T04:08:34;11.00;;;4.80;;
35715;SDS011;21840;44.920;8.616;2023-07-31T04:10:59;8.98;;;4.82;;
35715;SDS011;21840;44.920;8.616;2023-07-31T04:13:25;9.70;;;4.72;;
35715;SDS011;21840;44.920;8.616;2023-07-31T04:15:52;10.13;;;4.85;;
35715;SDS011;21840;44.920;8.616;2023-07-31T04:18:19;7.18;;;4.35;;
35715;SDS011;21840;44.920;8.616;2023-07-31T04:20:45;8.45;;;4.22;;
35715;SDS011;21840;44.920;8.616;2023-07-31T04:23:10;8.82;;;4.75;;
35715;SDS011;21840;44.920;8.616;2023-07-31T04:25:36;11.98;;;4.78;;
35715;SDS011;21840;44.920;8.616;2023-07-31T04:28:01;9.45;;;4.40;;
35715;SDS011;21840;44.920;8.616;2023-07-31T04:30:30;10.52;;;4.70;;
35715;SDS011;21840;44.920;8.616;2023-07-31T04:32:55;20.17;;;5.93;;
35715;SDS011;21840;44.920;8.616;2023-07-31T04:35:21;15.52;;;5.05;;
35715;SDS011;21840;44.920;8.616;2023-07-31T04:37:46;10.40;;;5.03;;
35715;SDS011;21840;44.920;8.616;2023-07-31T04:40:14;11.00;;;5.65;;
35715;SDS011;21840;44.920;8.616;2023-07-31T04:42:40;11.40;;;5.95;;
35715;SDS011;21840;44.920;8.616;2023-07-31T04:45:06;8.82;;;5.97;;
35715;SDS011;21840;44.920;8.616;2023-07-31T04:47:32;11.32;;;5.72;;
35715;SDS011;21840;44.920;8.616;2023-07-31T04:49:57;9.13;;;5.50;;
35715;SDS011;21840;44.920;8.616;2023-07-31T04:52:23;8.45;;;5.32;;
35715;SDS011;21840;44.920;8.616;2023-07-31T04:54:48;9.30;;;6.50;;
35715;SDS011;21840;44.920;8.616;2023-07-31T04:57:14;11.35;;;6.60;;
35715;SDS011;21840;44.920;8.616;2023-07-31T04:59:39;13.50;;;6.30;;
35715;SDS011;21840;44.920;8.616;2023-07-31T05:02:05;12.02;;;5.93;;
35715;SDS011;21840;44.920;8.616;2023-07-31T05:04:32;12.20;;;6.20;;
35715;SDS011;21840;44.920;8.616;2023-07-31T05:06:57;8.95;;;5.45;;
35715;SDS011;21840;44.920;8.616;2023-07-31T05:09:23;16.17;;;6.53;;
35715;SDS011;21840;44.920;8.616;2023-07-31T05:11:48;13.80;;;5.72;;
35715;SDS011;21840;44.920;8.616;2023-07-31T05:14:13;16.40;;;6.10;;
35715;SDS011;21840;44.920;8.616;2023-07-31T05:16:39;12.45;;;5.80;;
35715;SDS011;21840;44.920;8.616;2023-07-31T05:19:04;11.25;;;5.38;;
35715;SDS011;21840;44.920;8.616;2023-07-31T05:21:30;7.10;;;5.07;;
35715;SDS011;21840;44.920;8.616;2023-07-31T05:23:55;10.02;;;5.57;;
35715;SDS011;21840;44.920;8.616;2023-07-31T05:26:21;10.88;;;6.13;;
35715;SDS011;21840;44.920;8.616;2023-07-31T05:28:46;7.18;;;5.28;;
35715;SDS011;21840;44.920;8.616;2023-07-31T05:31:11;8.35;;;5.03;;
35715;SDS011;21840;44.920;8.616;2023-07-31T05:33:37;15.00;;;5.32;;
35715;SDS011;21840;44.920;8.616;2023-07-31T05:36:02;11.05;;;5.13;;
35715;SDS011;21840;44.920;8.616;2023-07-31T05:38:28;9.25;;;4.72;;
35715;SDS011;21840;44.920;8.616;2023-07-31T05:40:53;6.15;;;4.47;;
35715;SDS011;21840;44.920;8.616;2023-07-31T05:43:19;11.13;;;5.05;;
35715;SDS011;21840;44.920;8.616;2023-07-31T05:45:44;9.07;;;4.88;;
35715;SDS011;21840;44.920;8.616;2023-07-31T05:48:09;9.20;;;4.90;;
35715;SDS011;21840;44.920;8.616;2023-07-31T05:50:35;9.52;;;5.05;;
35715;SDS011;21840;44.920;8.616;2023-07-31T05:53:02;8.75;;;5.35;;
35715;SDS011;21840;44.920;8.616;2023-07-31T05:55:27;9.43;;;5.15;;
35715;SDS011;21840;44.920;8.616;2023-07-31T05:57:53;10.23;;;6.55;;
35715;SDS011;21840;44.920;8.616;2023-07-31T06:00:19;10.93;;;6.20;;
35715;SDS011;21840;44.920;8.616;2023-07-31T06:02:44;12.07;;;7.20;;
35715;SDS011;21840;44.920;8.616;2023-07-31T06:05:10;16.30;;;8.07;;
35715;SDS011;21840;44.920;8.616;2023-07-31T06:07:35;20.10;;;8.68;;
35715;SDS011;21840;44.920;8.616;2023-07-31T06:10:01;12.73;;;7.80;;
35715;SDS011;21840;44.920;8.616;2023-07-31T06:12:30;15.40;;;8.40;;
35715;SDS011;21840;44.920;8.616;2023-07-31T06:14:56;16.73;;;10.02;;
35715;SDS011;21840;44.920;8.616;2023-07-31T06:17:22;20.30;;;11.68;;
35715;SDS011;21840;44.920;8.616;2023-07-31T06:19:48;13.85;;;11.60;;
35715;SDS011;21840;44.920;8.616;2023-07-31T06:22:14;15.57;;;11.52;;
35715;SDS011;21840;44.920;8.616;2023-07-31T06:24:40;16.35;;;12.45;;
35715;SDS011;21840;44.920;8.616;2023-07-31T06:27:05;25.88;;;12.73;;
35715;SDS011;21840;44.920;8.616;2023-07-31T06:29:31;21.20;;;11.98;;
35715;SDS011;21840;44.920;8.616;2023-07-31T06:31:57;20.02;;;14.32;;
35715;SDS011;21840;44.920;8.616;2023-07-31T06:34:22;24.48;;;15.07;;
35715;SDS011;21840;44.920;8.616;2023-07-31T06:36:50;23.80;;;15.93;;
35715;SDS011;21840;44.920;8.616;2023-07-31T06:39:16;23.23;;;17.25;;
35715;SDS011;21840;44.920;8.616;2023-07-31T06:41:42;25.15;;;16.58;;
35715;SDS011;21840;44.920;8.616;2023-07-31T06:44:09;20.00;;;16.45;;
35715;SDS011;21840;44.920;8.616;2023-07-31T06:46:35;24.42;;;19.08;;
35715;SDS011;21840;44.920;8.616;2023-07-31T06:49:01;29.95;;;23.77;;
35715;SDS011;21840;44.920;8.616;2023-07-31T06:51:26;37.10;;;24.77;;
35715;SDS011;21840;44.920;8.616;2023-07-31T06:53:52;31.67;;;24.52;;
35715;SDS011;21840;44.920;8.616;2023-07-31T06:56:17;32.30;;;26.30;;
35715;SDS011;21840;44.920;8.616;2023-07-31T06:58:43;33.90;;;26.05;;
35715;SDS011;21840;44.920;8.616;2023-07-31T07:01:08;30.35;;;23.17;;
35715;SDS011;21840;44.920;8.616;2023-07-31T07:03:33;30.27;;;23.38;;
35715;SDS011;21840;44.920;8.616;2023-07-31T07:05:59;31.85;;;22.70;;
35715;SDS011;21840;44.920;8.616;2023-07-31T07:08:24;34.58;;;23.45;;
35715;SDS011;21840;44.920;8.616;2023-07-31T07:10:50;30.63;;;23.83;;
35715;SDS011;21840;44.920;8.616;2023-07-31T07:13:15;31.95;;;23.23;;
35715;SDS011;21840;44.920;8.616;2023-07-31T07:15:43;32.10;;;24.20;;
35715;SDS011;21840;44.920;8.616;2023-07-31T07:18:13;29.75;;;24.27;;
35715;SDS011;21840;44.920;8.616;2023-07-31T07:20:39;29.15;;;23.48;;
35715;SDS011;21840;44.920;8.616;2023-07-31T07:23:04;35.72;;;24.00;;
35715;SDS011;21840;44.920;8.616;2023-07-31T07:25:30;34.65;;;24.77;;
35715;SDS011;21840;44.920;8.616;2023-07-31T07:27:55;28.52;;;22.52;;
35715;SDS011;21840;44.920;8.616;2023-07-31T07:30:21;30.45;;;24.42;;
35715;SDS011;21840;44.920;8.616;2023-07-31T07:32:46;32.38;;;25.95;;
35715;SDS011;21840;44.920;8.616;2023-07-31T07:35:12;40.00;;;25.38;;
35715;SDS011;21840;44.920;8.616;2023-07-31T07:37:37;33.55;;;25.90;;
35715;SDS011;21840;44.920;8.616;2023-07-31T07:40:03;41.72;;;29.20;;
35715;SDS011;21840;44.920;8.616;2023-07-31T07:42:29;36.65;;;27.75;;
35715;SDS011;21840;44.920;8.616;2023-07-31T07:44:54;32.45;;;27.15;;
35715;SDS011;21840;44.920;8.616;2023-07-31T07:47:19;38.63;;;28.33;;
35715;SDS011;21840;44.920;8.616;2023-07-31T07:49:45;37.45;;;28.00;;
35715;SDS011;21840;44.920;8.616;2023-07-31T07:52:10;37.88;;;27.70;;
35715;SDS011;21840;44.920;8.616;2023-07-31T07:54:36;37.90;;;28.80;;
35715;SDS011;21840;44.920;8.616;2023-07-31T07:57:01;37.17;;;28.13;;
35715;SDS011;21840;44.920;8.616;2023-07-31T07:59:27;33.20;;;26.90;;
35715;SDS011;21840;44.920;8.616;2023-07-31T08:01:52;34.65;;;26.83;;
35715;SDS011;21840;44.920;8.616;2023-07-31T08:04:18;38.35;;;28.52;;
35715;SDS011;21840;44.920;8.616;2023-07-31T08:06:43;33.92;;;27.60;;
35715;SDS011;21840;44.920;8.616;2023-07-31T08:09:09;35.30;;;23.83;;
35715;SDS011;21840;44.920;8.616;2023-07-31T08:11:35;31.75;;;26.25;;
35715;SDS011;21840;44.920;8.616;2023-07-31T08:14:00;33.80;;;23.63;;
35715;SDS011;21840;44.920;8.616;2023-07-31T08:16:26;32.50;;;24.08;;
35715;SDS011;21840;44.920;8.616;2023-07-31T08:18:51;42.08;;;27.52;;
35715;SDS011;21840;44.920;8.616;2023-07-31T08:21:17;31.77;;;24.33;;
35715;SDS011;21840;44.920;8.616;2023-07-31T08:23:42;34.42;;;26.75;;
35715;SDS011;21840;44.920;8.616;2023-07-31T08:26:08;32.90;;;25.95;;
35715;SDS011;21840;44.920;8.616;2023-07-31T08:28:40;31.02;;;25.70;;
35715;SDS011;21840;44.920;8.616;2023-07-31T08:31:05;32.65;;;24.30;;
35715;SDS011;21840;44.920;8.616;2023-07-31T08:33:30;35.22;;;28.60;;
35715;SDS011;21840;44.920;8.616;2023-07-31T08:35:56;38.88;;;28.67;;
35715;SDS011;21840;44.920;8.616;2023-07-31T08:38:22;35.58;;;28.42;;
35715;SDS011;21840;44.920;8.616;2023-07-31T08:40:50;41.97;;;29.92;;
35715;SDS011;21840;44.920;8.616;2023-07-31T08:43:16;45.78;;;30.50;;
35715;SDS011;21840;44.920;8.616;2023-07-31T08:45:41;45.28;;;32.58;;
35715;SDS011;21840;44.920;8.616;2023-07-31T08:48:10;43.80;;;32.72;;
35715;SDS011;21840;44.920;8.616;2023-07-31T08:50:36;47.90;;;33.22;;
35715;SDS011;21840;44.920;8.616;2023-07-31T08:53:03;46.00;;;33.05;;
35715;SDS011;21840;44.920;8.616;2023-07-31T08:55:28;45.10;;;32.55;;
35715;SDS011;21840;44.920;8.616;2023-07-31T08:57:54;44.28;;;32.13;;
35715;SDS011;21840;44.920;8.616;2023-07-31T09:00:22;50.22;;;34.50;;
35715;SDS011;21840;44.920;8.616;2023-07-31T09:02:52;44.03;;;32.67;;
35715;SDS011;21840;44.920;8.616;2023-07-31T09:05:23;42.05;;;32.75;;
35715;SDS011;21840;44.920;8.616;2023-07-31T09:07:51;42.58;;;31.98;;
35715;SDS011;21840;44.920;8.616;2023-07-31T09:10:16;41.30;;;31.08;;
35715;SDS011;21840;44.920;8.616;2023-07-31T09:12:42;40.25;;;31.80;;
35715;SDS011;21840;44.920;8.616;2023-07-31T09:15:07;40.13;;;29.42;;
35715;SDS011;21840;44.920;8.616;2023-07-31T09:17:34;36.63;;;27.83;;
35715;SDS011;21840;44.920;8.616;2023-07-31T09:20:22;32.65;;;26.58;;
35715;SDS011;21840;44.920;8.616;2023-07-31T09:22:48;32.55;;;26.70;;
35715;SDS011;21840;44.920;8.616;2023-07-31T09:25:20;38.30;;;27.35;;
35715;SDS011;21840;44.920;8.616;2023-07-31T09:30:16;39.15;;;28.48;;
35715;SDS011;21840;44.920;8.616;2023-07-31T09:32:46;32.97;;;26.95;;
35715;SDS011;21840;44.920;8.616;2023-07-31T09:35:28;36.22;;;29.05;;
35715;SDS011;21840;44.920;8.616;2023-07-31T09:38:03;42.20;;;32.83;;
35715;SDS011;21840;44.920;8.616;2023-07-31T09:40:29;37.60;;;31.60;;
35715;SDS011;21840;44.920;8.616;2023-07-31T09:42:59;39.65;;;31.50;;
35715;SDS011;21840;44.920;8.616;2023-07-31T09:45:26;35.88;;;30.45;;
35715;SDS011;21840;44.920;8.616;2023-07-31T09:47:53;40.25;;;33.80;;
35715;SDS011;21840;44.920;8.616;2023-07-31T09:50:22;38.53;;;32.53;;
35715;SDS011;21840;44.920;8.616;2023-07-31T09:52:49;35.03;;;29.85;;
35715;SDS011;21840;44.920;8.616;2023-07-31T09:55:17;37.10;;;30.98;;
35715;SDS011;21840;44.920;8.616;2023-07-31T09:57:45;34.08;;;29.02;;
35715;SDS011;21840;44.920;8.616;2023-07-31T10:00:12;30.67;;;26.30;;
35715;SDS011;21840;44.920;8.616;2023-07-31T10:02:40;29.13;;;24.48;;
35715;SDS011;21840;44.920;8.616;2023-07-31T10:05:06;32.42;;;27.42;;
35715;SDS011;21840;44.920;8.616;2023-07-31T10:07:38;31.13;;;26.38;;
35715;SDS011;21840;44.920;8.616;2023-07-31T10:10:07;27.40;;;23.92;;
35715;SDS011;21840;44.920;8.616;2023-07-31T10:12:34;27.15;;;24.25;;
35715;SDS011;21840;44.920;8.616;2023-07-31T10:15:00;28.58;;;24.42;;
35715;SDS011;21840;44.920;8.616;2023-07-31T10:17:26;32.58;;;25.88;;
35715;SDS011;21840;44.920;8.616;2023-07-31T10:19:54;34.28;;;27.02;;
35715;SDS011;21840;44.920;8.616;2023-07-31T10:22:21;31.60;;;25.65;;
35715;SDS011;21840;44.920;8.616;2023-07-31T10:24:47;28.35;;;23.23;;
35715;SDS011;21840;44.920;8.616;2023-07-31T10:27:14;28.75;;;23.48;;
35715;SDS011;21840;44.920;8.616;2023-07-31T10:29:39;31.33;;;25.15;;
35715;SDS011;21840;44.920;8.616;2023-07-31T10:32:08;29.13;;;22.52;;
35715;SDS011;21840;44.920;8.616;2023-07-31T10:34:35;29.38;;;24.48;;
35715;SDS011;21840;44.920;8.616;2023-07-31T10:37:19;27.35;;;22.08;;
35715;SDS011;21840;44.920;8.616;2023-07-31T10:39:45;24.73;;;21.45;;
35715;SDS011;21840;44.920;8.616;2023-07-31T10:42:27;28.42;;;22.80;;
35715;SDS011;21840;44.920;8.616;2023-07-31T10:45:00;35.75;;;25.88;;
35715;SDS011;21840;44.920;8.616;2023-07-31T10:47:27;36.83;;;27.95;;
35715;SDS011;21840;44.920;8.616;2023-07-31T10:49:53;28.92;;;23.33;;
35715;SDS011;21840;44.920;8.616;2023-07-31T10:52:35;33.35;;;22.83;;
35715;SDS011;21840;44.920;8.616;2023-07-31T10:58:06;29.85;;;23.45;;
35715;SDS011;21840;44.920;8.616;2023-07-31T11:00:41;29.33;;;21.25;;
35715;SDS011;21840;44.920;8.616;2023-07-31T11:03:15;26.65;;;20.65;;
35715;SDS011;21840;44.920;8.616;2023-07-31T11:05:46;26.50;;;18.90;;
35715;SDS011;21840;44.920;8.616;2023-07-31T11:08:21;24.08;;;19.70;;
35715;SDS011;21840;44.920;8.616;2023-07-31T11:11:04;30.98;;;23.17;;
35715;SDS011;21840;44.920;8.616;2023-07-31T11:13:40;29.90;;;23.23;;
35715;SDS011;21840;44.920;8.616;2023-07-31T11:16:08;28.60;;;24.25;;
35715;SDS011;21840;44.920;8.616;2023-07-31T11:18:34;27.45;;;24.20;;
35715;SDS011;21840;44.920;8.616;2023-07-31T11:21:01;26.48;;;21.65;;
35715;SDS011;21840;44.920;8.616;2023-07-31T11:23:26;32.83;;;25.38;;
35715;SDS011;21840;44.920;8.616;2023-07-31T11:25:52;28.05;;;20.08;;
35715;SDS011;21840;44.920;8.616;2023-07-31T11:28:18;23.13;;;19.90;;
35715;SDS011;21840;44.920;8.616;2023-07-31T11:30:44;19.63;;;16.80;;
35715;SDS011;21840;44.920;8.616;2023-07-31T11:33:12;23.85;;;17.10;;
35715;SDS011;21840;44.920;8.616;2023-07-31T11:35:43;18.85;;;15.27;;
35715;SDS011;21840;44.920;8.616;2023-07-31T11:38:27;19.02;;;14.65;;
35715;SDS011;21840;44.920;8.616;2023-07-31T11:40:55;18.98;;;16.00;;
35715;SDS011;21840;44.920;8.616;2023-07-31T11:43:22;21.52;;;16.90;;
35715;SDS011;21840;44.920;8.616;2023-07-31T11:45:49;19.13;;;14.98;;
35715;SDS011;21840;44.920;8.616;2023-07-31T11:48:20;20.60;;;13.60;;
35715;SDS011;21840;44.920;8.616;2023-07-31T11:50:46;19.50;;;13.18;;
35715;SDS011;21840;44.920;8.616;2023-07-31T11:53:14;15.25;;;13.30;;
35715;SDS011;21840;44.920;8.616;2023-07-31T11:55:41;22.67;;;11.18;;
35715;SDS011;21840;44.920;8.616;2023-07-31T11:58:06;14.63;;;10.93;;
35715;SDS011;21840;44.920;8.616;2023-07-31T12:00:33;13.77;;;10.50;;
35715;SDS011;21840;44.920;8.616;2023-07-31T12:02:59;17.35;;;11.68;;
35715;SDS011;21840;44.920;8.616;2023-07-31T12:05:24;13.15;;;10.32;;
35715;SDS011;21840;44.920;8.616;2023-07-31T12:07:51;19.30;;;11.25;;
35715;SDS011;21840;44.920;8.616;2023-07-31T12:10:28;15.63;;;9.15;;
35715;SDS011;21840;44.920;8.616;2023-07-31T12:13:05;14.57;;;7.90;;
35715;SDS011;21840;44.920;8.616;2023-07-31T12:15:39;14.18;;;7.40;;
35715;SDS011;21840;44.920;8.616;2023-07-31T12:18:19;15.07;;;7.18;;
35715;SDS011;21840;44.920;8.616;2023-07-31T12:20:46;17.10;;;7.05;;
35715;SDS011;21840;44.920;8.616;2023-07-31T12:23:14;12.10;;;7.50;;
35715;SDS011;21840;44.920;8.616;2023-07-31T12:25:41;13.00;;;6.88;;
35715;SDS011;21840;44.920;8.616;2023-07-31T12:28:06;15.70;;;6.22;;
35715;SDS011;21840;44.920;8.616;2023-07-31T12:30:39;12.48;;;5.93;;
35715;SDS011;21840;44.920;8.616;2023-07-31T12:33:13;12.98;;;6.18;;
35715;SDS011;21840;44.920;8.616;2023-07-31T12:35:46;12.13;;;5.63;;
35715;SDS011;21840;44.920;8.616;2023-07-31T12:38:15;17.38;;;5.53;;
35715;SDS011;21840;44.920;8.616;2023-07-31T12:40:41;11.63;;;4.90;;
35715;SDS011;21840;44.920;8.616;2023-07-31T12:43:07;7.97;;;4.55;;
35715;SDS011;21840;44.920;8.616;2023-07-31T12:45:33;9.65;;;4.63;;
35715;SDS011;21840;44.920;8.616;2023-07-31T12:47:59;10.27;;;4.45;;
35715;SDS011;21840;44.920;8.616;2023-07-31T12:50:25;6.75;;;4.38;;
35715;SDS011;21840;44.920;8.616;2023-07-31T12:52:51;10.30;;;4.70;;
35715;SDS011;21840;44.920;8.616;2023-07-31T12:55:17;14.27;;;4.15;;
35715;SDS011;21840;44.920;8.616;2023-07-31T12:57:43;7.75;;;4.20;;
35715;SDS011;21840;44.920;8.616;2023-07-31T13:00:09;8.43;;;4.38;;
35715;SDS011;21840;44.920;8.616;2023-07-31T13:02:36;8.05;;;4.65;;
35715;SDS011;21840;44.920;8.616;2023-07-31T13:05:02;8.60;;;4.50;;
35715;SDS011;21840;44.920;8.616;2023-07-31T13:07:27;8.73;;;4.40;;
35715;SDS011;21840;44.920;8.616;2023-07-31T13:09:53;10.35;;;4.80;;
35715;SDS011;21840;44.920;8.616;2023-07-31T13:12:18;6.72;;;4.20;;
35715;SDS011;21840;44.920;8.616;2023-07-31T13:14:43;8.32;;;4.40;;
35715;SDS011;21840;44.920;8.616;2023-07-31T13:17:09;12.20;;;4.95;;
35715;SDS011;21840;44.920;8.616;2023-07-31T13:19:34;5.43;;;3.65;;
35715;SDS011;21840;44.920;8.616;2023-07-31T13:22:00;6.63;;;3.92;;
35715;SDS011;21840;44.920;8.616;2023-07-31T13:24:25;6.93;;;4.20;;
35715;SDS011;21840;44.920;8.616;2023-07-31T13:26:51;5.07;;;3.88;;
35715;SDS011;21840;44.920;8.616;2023-07-31T13:29:16;11.98;;;4.13;;
35715;SDS011;21840;44.920;8.616;2023-07-31T13:31:41;6.03;;;3.85;;
35715;SDS011;21840;44.920;8.616;2023-07-31T13:34:07;14.77;;;4.00;;
35715;SDS011;21840;44.920;8.616;2023-07-31T13:36:32;5.30;;;3.78;;
35715;SDS011;21840;44.920;8.616;2023-07-31T13:38:59;6.20;;;3.60;;
35715;SDS011;21840;44.920;8.616;2023-07-31T13:41:25;6.95;;;3.97;;
35715;SDS011;21840;44.920;8.616;2023-07-31T13:43:50;6.78;;;4.03;;
35715;SDS011;21840;44.920;8.616;2023-07-31T13:46:16;7.60;;;4.05;;
35715;SDS011;21840;44.920;8.616;2023-07-31T13:48:44;4.68;;;3.55;;
35715;SDS011;21840;44.920;8.616;2023-07-31T13:51:09;6.85;;;4.03;;
35715;SDS011;21840;44.920;8.616;2023-07-31T13:53:35;6.18;;;3.45;;
35715;SDS011;21840;44.920;8.616;2023-07-31T13:56:00;8.88;;;3.85;;
35715;SDS011;21840;44.920;8.616;2023-07-31T13:58:29;5.97;;;3.35;;
35715;SDS011;21840;44.920;8.616;2023-07-31T14:00:54;5.40;;;3.90;;
35715;SDS011;21840;44.920;8.616;2023-07-31T14:03:19;11.18;;;3.55;;
35715;SDS011;21840;44.920;8.616;2023-07-31T14:05:45;10.10;;;4.00;;
35715;SDS011;21840;44.920;8.616;2023-07-31T14:08:10;6.60;;;3.90;;
35715;SDS011;21840;44.920;8.616;2023-07-31T14:10:36;7.47;;;4.15;;
35715;SDS011;21840;44.920;8.616;2023-07-31T14:13:01;5.53;;;3.53;;
35715;SDS011;21840;44.920;8.616;2023-07-31T14:15:27;5.45;;;3.55;;
35715;SDS011;21840;44.920;8.616;2023-07-31T14:17:52;10.05;;;3.63;;
35715;SDS011;21840;44.920;8.616;2023-07-31T14:20:18;6.20;;;3.70;;
35715;SDS011;21840;44.920;8.616;2023-07-31T14:22:44;8.02;;;3.20;;
35715;SDS011;21840;44.920;8.616;2023-07-31T14:25:09;8.43;;;3.33;;
35715;SDS011;21840;44.920;8.616;2023-07-31T14:27:35;10.45;;;3.47;;
35715;SDS011;21840;44.920;8.616;2023-07-31T14:30:01;9.77;;;3.55;;
35715;SDS011;21840;44.920;8.616;2023-07-31T14:32:28;7.90;;;3.65;;
35715;SDS011;21840;44.920;8.616;2023-07-31T14:34:54;7.40;;;3.33;;
35715;SDS011;21840;44.920;8.616;2023-07-31T14:37:20;5.07;;;3.17;;
35715;SDS011;21840;44.920;8.616;2023-07-31T14:39:45;6.93;;;2.97;;
35715;SDS011;21840;44.920;8.616;2023-07-31T14:42:11;5.80;;;3.15;;